METAR Data
IDs: Format: Raw Decoded Include TAF

Data at: 0416 UTC 20 Oct 2018

PACM 200356Z AUTO 26004KT 10SM BKN011 OVC090 05/04 A2943 RMK AO2 SLP963 T00500039
PACM 200320Z AUTO 24004KT 10SM SCT008 05/04 A2943 RMK AO2
PACM 200256Z AUTO 24005KT 10SM BKN010 BKN014 OVC085 05/04 A2943 RMK AO2 CIG 008V013 SLP961 T00500039 55006
PACM 200230Z AUTO 26007KT 10SM BKN012 BKN085 06/04 A2943 RMK AO2
PACM 200156Z AUTO 25009KT 10SM OVC085 05/04 A2943 RMK AO2 SLP960 T00500039
PACM 200056Z AUTO 25008KT 10SM FEW080 05/04 A2943 RMK AO2 SLP963 T00500039
PACM 192356Z AUTO 00000KT 10SM CLR 06/03 A2945 RMK AO2 SLP967 T00560033 10056 20000 58010
PACM 192256Z AUTO 25003KT 10SM CLR 05/03 A2946 RMK AO2 SLP971 T00500033
PACM 192156Z AUTO 00000KT 10SM CLR 04/03 A2947 RMK AO2 SLP976 T00440033
PACM 192056Z AUTO 00000KT 10SM CLR 03/02 A2948 RMK AO2 SLP978 T00280022 56007
PACM 191956Z AUTO 00000KT 10SM CLR 03/03 A2948 RMK AO2 SLP979 T00330028
PACM 191856Z AUTO 00000KT 7SM CLR 02/01 A2949 RMK AO2 SLP981 T00170011 FZRANO
PACM 191851Z AUTO 00000KT 3SM BR CLR 01/01 A2949 RMK AO2 FZRANO
PACM 191847Z AUTO 00000KT 1 1/4SM BR FEW001 01/01 A2949 RMK AO2 FZRANO
PACM 191834Z AUTO 00000KT 3/4SM BR VV001 00/00 A2949 RMK AO2 FZRANO
PACM 191827Z AUTO 00000KT 3/4SM BR VV002 00/00 A2949 RMK AO2 VIS 1/2V2 1/2 FZRANO
PACM 191821Z AUTO 00000KT 1 3/4SM BR SCT001 00/00 A2949 RMK AO2 VIS 3/4V5 FZRANO
PACM 191817Z AUTO 00000KT 3SM BR SCT001 00/00 A2949 RMK AO2 FZRANO
PACM 191815Z AUTO 00000KT 1 3/4SM BR SCT001 00/00 A2949 RMK AO2 VIS 1/2V5 FZRANO
PACM 191811Z AUTO 00000KT 3/4SM BR VV001 00/00 A2949 RMK AO2 FZRANO
PACM 191756Z AUTO 00000KT 1/4SM FG BKN001 01/01 A2950 RMK AO2 SLP985 T00110006 10044 20011 57003 FZRANO
PACM 191751Z AUTO 00000KT 1/4SM FG BKN001 01/01 A2950 RMK AO2 FZRANO
PACM 191743Z AUTO 00000KT 1/2SM FG BKN001 02/01 A2950 RMK AO2 VIS M1/4V5 FZRANO
PACM 191738Z AUTO 00000KT 1SM BR OVC001 02/01 A2950 RMK AO2 VIS 1/4V5 FZRANO
PACM 191729Z AUTO 00000KT 1/2SM FG BKN001 02/01 A2950 RMK AO2 FZRANO
PACM 191723Z AUTO 00000KT 1SM BR BKN001 01/01 A2950 RMK AO2 FZRANO
PACM 191717Z AUTO 00000KT 2 1/2SM BR BKN001 02/02 A2950 RMK AO2 FZRANO
PACM 191656Z AUTO 00000KT 10SM SCT003 02/02 A2951 RMK AO2 SLP988 T00170017 FZRANO
PACM 191654Z AUTO 00000KT 10SM SCT003 02/02 A2951 RMK AO2 FZRANO
PACM 191642Z AUTO 00000KT 10SM BKN003 02/02 A2951 RMK AO2 FZRANO
PACM 191635Z AUTO 00000KT 10SM OVC001 02/02 A2952 RMK AO2 FZRANO
PACM 191626Z AUTO 00000KT 2SM BR OVC001 02/02 A2952 RMK AO2 VIS 3/4V5 FZRANO
PACM 191622Z AUTO 00000KT 1SM BR OVC001 02/02 A2952 RMK AO2 VIS 1/2V3 FZRANO
PACM 191617Z AUTO 00000KT 1/2SM FG OVC001 02/02 A2952 RMK AO2 FZRANO
PACM 191608Z AUTO 00000KT 1/4SM FG OVC003 02/02 A2952 RMK AO2 FZRANO
PACM 191556Z AUTO 00000KT 1/2SM FG OVC003 02/02 A2952 RMK AO2 SLP993 T00220022 FZRANO
PACM 191546Z AUTO 00000KT 1/4SM FG OVC003 03/02 A2953 RMK AO2
PACM 191537Z AUTO 00000KT 3/4SM BR OVC003 03/03 A2953 RMK AO2
PACM 191529Z AUTO 00000KT 1 1/2SM BR OVC003 03/03 A2953 RMK AO2
PACM 191456Z AUTO 00000KT 10SM OVC003 03/03 A2954 RMK AO2 SLP999 T00330028 58014
PACM 191410Z AUTO 00000KT 3SM BR OVC003 04/03 A2956 RMK AO2
PACM 191400Z AUTO 00000KT 1 3/4SM BR OVC003 04/03 A2956 RMK AO2
PACM 191356Z AUTO 00000KT 6SM BR OVC003 04/03 A2956 RMK AO2 SLP004 T00390033
PACM 191334Z AUTO 00000KT 7SM BKN003 OVC080 04/04 A2956 RMK AO2
PACM 191327Z AUTO 00000KT 2 1/2SM BR BKN003 OVC080 04/04 A2957 RMK AO2 VIS 1V5
PACM 191314Z AUTO 00000KT 1 1/2SM BR OVC003 04/04 A2957 RMK AO2 VIS 1V2 1/2
PACM 191256Z AUTO 00000KT 1SM BR OVC003 04/04 A2958 RMK AO2 SLP012 T00440044
PACM 191252Z AUTO 00000KT 1SM BR OVC003 04/04 A2958 RMK AO2
PACM 191156Z AUTO 00000KT 1/2SM FG OVC003 04/04 A2959 RMK AO2 SLP017 60002 70008 T00440044 10044 20039 56016
PACM 191124Z AUTO 00000KT 1/2SM FG OVC003 04/04 A2960 RMK AO2
PACM 191116Z AUTO 00000KT 1SM BR OVC003 04/04 A2960 RMK AO2
PACM 191108Z AUTO 00000KT 1 1/4SM BR OVC003 04/04 A2960 RMK AO2
PACM 191056Z AUTO 23003KT 2SM BR OVC003 04/04 A2961 RMK AO2 VIS 1 1/4V5 SLP021 T00440044
PACM 191049Z AUTO 00000KT 1 3/4SM BR OVC003 04/04 A2961 RMK AO2
PACM 191040Z AUTO 00000KT 1SM BR OVC003 04/04 A2961 RMK AO2
PACM 190956Z AUTO 27004KT 3/4SM BR OVC003 04/04 A2962 RMK AO2 SLP027 T00440044
PACM 190938Z AUTO 25003KT 3/4SM BR OVC003 04/04 A2963 RMK AO2
PACM 190927Z AUTO 00000KT 1SM BR OVC003 04/04 A2963 RMK AO2
PACM 190856Z AUTO 00000KT 3/4SM BR OVC003 04/04 A2964 RMK AO2 SLP032 P0001 60002 T00440044 400440028 58008
PACM 190826Z AUTO 00000KT 3/4SM BR OVC003 04/04 A2964 RMK AO2 P0001
PACM 190819Z AUTO 00000KT 1SM BR OVC003 04/04 A2964 RMK AO2
PACM 190811Z AUTO 00000KT 3/4SM BR OVC003 04/04 A2964 RMK AO2
PACM 190756Z AUTO 00000KT 1/2SM FG OVC003 04/04 A2965 RMK AO2 SLP035 T00440044
PACM 190709Z AUTO 00000KT 1/2SM FG OVC003 04/04 A2966 RMK AO2
PACM 190656Z AUTO 00000KT 3/4SM BR OVC003 04/04 A2966 RMK AO2 RAE53 SLP040 P0001 T00440039
PACM 190651Z AUTO 24003KT 1SM -RA BR OVC003 04/04 A2966 RMK AO2 P0001
PACM 190635Z AUTO 00000KT 1 1/2SM -RA BR OVC003 04/04 A2966 RMK AO2 P0001
PACM 190625Z AUTO 00000KT 2SM -RA BR OVC003 04/04 A2967 RMK AO2 P0001
PACM 190611Z AUTO 00000KT 1 1/2SM -RA BR OVC003 04/04 A2967 RMK AO2 P0001
PACM 190556Z AUTO 00000KT 1SM -RA BR OVC003 04/04 A2967 RMK AO2 RAB21 SLP044 P0001 60005 T00390039 10039 20033 57007
PACM 190548Z AUTO 00000KT 1SM -RA BR OVC003 04/04 A2967 RMK AO2 RAB21 P0001
PACM 190501Z AUTO 00000KT 3/4SM BR OVC003 04/04 A2968 RMK AO2
PACM 190456Z AUTO 16004KT 1 1/2SM BR OVC003 04/04 A2968 RMK AO2 RAB0357E45 SLP046 P0001 T00390039
PACM 190454Z AUTO 17003KT 1 3/4SM BR OVC003 04/04 A2968 RMK AO2 RAB0357E45 P0001
PACM 190443Z AUTO 00000KT 6SM -RA BR OVC003 04/04 A2968 RMK AO2 RAB0357 P0001
PACM 190434Z AUTO 22003KT 2 1/2SM -RA BR OVC003 04/04 A2968 RMK AO2 RAB0357 P0001
PACM 190417Z AUTO 00000KT 1 1/4SM RA BR OVC003 04/04 A2968 RMK AO2 RAB0357 P0000
PACM 190409Z AUTO 00000KT 1SM -RA BR OVC003 04/04 A2968 RMK AO2 RAB0357 P0000
PACM 190403Z AUTO 01004KT 1/2SM -RA FG OVC003 04/04 A2969 RMK AO2 RAB0357 P0000
PACM 190356Z AUTO 00000KT 3/4SM BR OVC003 04/04 A2969 RMK AO2 SLP049 T00390039
PACM 190348Z AUTO VRB06KT 1SM BR OVC003 04/04 A2969 RMK AO2
PACM 190340Z AUTO VRB04KT 2 1/2SM BR OVC003 04/04 A2969 RMK AO2 VIS 1V4
PACM 190256Z AUTO 35004KT 6SM BR OVC005 04/03 A2969 RMK AO2 RAE56 SLP051 P0003 60003 T00390033 56009
PACM 190156Z AUTO 35009KT 5SM -RA BR OVC005 04/03 A2970 RMK AO2 RAB49 SLP053 P0000 T00390033
PACM 190056Z AUTO 35008KT 8SM OVC005 03/03 A2970 RMK AO2 RAB01E38 SLP055 P0000 T00330028
PACM 190023Z AUTO 34005KT 3SM -RA BR OVC005 03/03 A2971 RMK AO2 RAB01 P0000
PACM 190011Z AUTO 34009KT 2 1/2SM -RA BR OVC007 03/03 A2972 RMK AO2 RAB01 CIG 004V008 P0000
PACM 182356Z AUTO 34008KT 5SM BR OVC007 03/02 A2972 RMK AO2 RAB2259E54 CIG 005V011 SLP060 P0000 60000 T00330022 10039 20033 58005
PACM 182321Z AUTO 34011KT 7SM -RA BKN009 OVC024 03/02 A2973 RMK AO2 RAB2259 CIG 007V011 P0000
PACM 182256Z AUTO 34011KT 4SM BR OVC011 03/02 A2973 RMK AO2 RAE27 SLP062 P0000 T00330022
PACM 182156Z AUTO 34012KT 9SM -RA BKN011 BKN025 OVC035 03/02 A2973 RMK AO2 RAB01 SLP065 P0000 T00330017
PACM 182154Z AUTO 35013KT 9SM -RA BKN011 BKN028 OVC035 03/02 A2974 RMK AO2 RAB01 P0000
PACM 182131Z AUTO 34009KT 10SM -RA SCT009 BKN024 OVC035 03/02 A2974 RMK AO2 RAB01 P0000
PACM 182114Z AUTO 34008KT 10SM -RA BKN009 BKN026 OVC034 03/02 A2974 RMK AO2 RAB01 P0000
PACM 182056Z AUTO 36008KT 10SM FEW011 BKN026 OVC034 03/02 A2974 RMK AO2 RAB34E55 SLP067 P0000 60000 T00330017 51008
PACM 182032Z AUTO 36008KT 10SM SCT011 BKN023 OVC032 03/02 A2974 RMK AO2
PACM 182009Z AUTO 35011KT 10SM FEW013 SCT028 OVC032 03/02 A2974 RMK AO2
PACM 181956Z AUTO 35009KT 10SM SCT013 BKN029 OVC034 03/02 A2974 RMK AO2 RAE55 SLP066 P0000 T00330017
PACM 181944Z AUTO 35008KT 10SM -RA SCT011 BKN031 OVC039 03/02 A2974 RMK AO2 P0000
PACM 181930Z AUTO 35010KT 10SM -RA SCT011 BKN029 OVC039 03/02 A2973 RMK AO2 P0000
PACM 181856Z AUTO 35006KT 10SM -RA FEW017 OVC050 03/02 A2973 RMK AO2 RAB06 SLP063 P0000 T00330017
PACM 181756Z AUTO 33008KT 10SM OVC060 03/02 A2972 RMK AO2 RAE30B46E47UPB06E09B30E46 SLP059 P0000 60001 T00330017 10033 20028 53005
PACM 181656Z AUTO 31006KT 10SM -RA BKN039 OVC060 03/01 A2971 RMK AO2 SLP058 P0001 T00280011
PACM 181627Z AUTO 32007KT 10SM -RA SCT028 OVC039 03/01 A2971 RMK AO2 P0001